Weather at Tumbang Samba Airport

Public forecast

Using degrees Celsius for public forecast. Weather courtesy of forecast.io.

Closest aviation weather report (METAR) to Tumbang Samba Airport

Report is more than 6 hours old.

Closest report is Syamsudin Noor International Airport, 155.5 nm (288.0 km) SE.

2024/06/24 06:30 (retrieved 1 day ago)

WAOO 240630Z 06002KT 9999 SCT020 32/22 Q1007 NOSIG

Closest aviation forecast (TAF) to Tumbang Samba Airport

Forecast is more than 12 hours old.

Closest forecast is Sultan Aji Muhammad Sulaiman Sepinggan International Airport, 229.1 nm (424.3 km) E.

2024/06/24 06:00 (retrieved 1 day ago)

TAF WALL 240500Z 2406/2512 05006KT 9999 RA SCT018 BECMG 2407/2409 NSW